sensor_id;sensor_type;location;lat;lon;timestamp;pressure;altitude;pressure_sealevel;temperature;humidity
75072;BME280;63651;55.728;38.022;2023-05-07T00:01:26;100507.38;;;10.54;33.71
75072;BME280;63651;55.728;38.022;2023-05-07T00:06:27;100508.84;;;10.42;34.21
75072;BME280;63651;55.728;38.022;2023-05-07T00:11:29;100498.84;;;10.35;33.84
75072;BME280;63651;55.728;38.022;2023-05-07T00:16:31;100519.53;;;10.36;33.78
75072;BME280;63651;55.728;38.022;2023-05-07T00:21:32;100512.91;;;10.38;34.02
75072;BME280;63651;55.728;38.022;2023-05-07T00:26:33;100523.09;;;10.44;33.74
75072;BME280;63651;55.728;38.022;2023-05-07T00:31:34;100528.63;;;10.51;34.00
75072;BME280;63651;55.728;38.022;2023-05-07T00:36:35;100528.28;;;10.54;34.03
75072;BME280;63651;55.728;38.022;2023-05-07T00:41:36;100529.19;;;10.46;33.95
75072;BME280;63651;55.728;38.022;2023-05-07T00:46:37;100525.31;;;10.41;35.33
75072;BME280;63651;55.728;38.022;2023-05-07T00:51:38;100525.56;;;10.54;34.37
75072;BME280;63651;55.728;38.022;2023-05-07T00:56:39;100531.78;;;10.32;35.05
75072;BME280;63651;55.728;38.022;2023-05-07T01:01:41;100526.63;;;10.45;34.37
75072;BME280;63651;55.728;38.022;2023-05-07T01:06:42;100528.34;;;10.38;34.13
75072;BME280;63651;55.728;38.022;2023-05-07T01:11:45;100532.09;;;10.37;34.04
75072;BME280;63651;55.728;38.022;2023-05-07T01:16:48;100542.47;;;10.33;34.41
75072;BME280;63651;55.728;38.022;2023-05-07T01:21:51;100529.03;;;10.40;34.65
75072;BME280;63651;55.728;38.022;2023-05-07T01:26:53;100540.59;;;10.34;35.50
75072;BME280;63651;55.728;38.022;2023-05-07T01:31:58;100533.19;;;10.27;35.52
75072;BME280;63651;55.728;38.022;2023-05-07T01:37:00;100554.50;;;10.39;35.26
75072;BME280;63651;55.728;38.022;2023-05-07T01:42:02;100545.72;;;10.29;34.98
75072;BME280;63651;55.728;38.022;2023-05-07T01:47:03;100548.91;;;10.40;34.35
75072;BME280;63651;55.728;38.022;2023-05-07T01:52:05;100551.81;;;10.31;34.54
75072;BME280;63651;55.728;38.022;2023-05-07T01:57:06;100556.72;;;10.35;35.09
75072;BME280;63651;55.728;38.022;2023-05-07T02:02:07;100568.13;;;10.31;34.62
75072;BME280;63651;55.728;38.022;2023-05-07T02:07:08;100568.44;;;10.36;34.99
75072;BME280;63651;55.728;38.022;2023-05-07T02:12:09;100578.31;;;10.29;34.20
75072;BME280;63651;55.728;38.022;2023-05-07T02:17:10;100577.72;;;10.49;35.23
75072;BME280;63651;55.728;38.022;2023-05-07T02:22:11;100581.44;;;10.48;34.73
75072;BME280;63651;55.728;38.022;2023-05-07T02:27:12;100583.69;;;10.45;33.95
75072;BME280;63651;55.728;38.022;2023-05-07T02:32:13;100590.31;;;10.42;34.77
75072;BME280;63651;55.728;38.022;2023-05-07T02:37:14;100598.06;;;10.53;34.27
75072;BME280;63651;55.728;38.022;2023-05-07T02:42:15;100604.47;;;10.61;35.00
75072;BME280;63651;55.728;38.022;2023-05-07T02:47:16;100610.38;;;10.64;34.54
75072;BME280;63651;55.728;38.022;2023-05-07T02:52:17;100612.88;;;10.74;34.17
75072;BME280;63651;55.728;38.022;2023-05-07T02:57:18;100621.06;;;10.66;35.01
75072;BME280;63651;55.728;38.022;2023-05-07T03:02:19;100625.91;;;10.78;34.69
75072;BME280;63651;55.728;38.022;2023-05-07T03:07:20;100623.00;;;10.80;34.74
75072;BME280;63651;55.728;38.022;2023-05-07T03:12:21;100632.69;;;10.82;34.05
75072;BME280;63651;55.728;38.022;2023-05-07T03:17:22;100633.53;;;10.83;34.00
75072;BME280;63651;55.728;38.022;2023-05-07T03:22:23;100630.88;;;10.98;34.16
75072;BME280;63651;55.728;38.022;2023-05-07T03:27:25;100646.94;;;11.07;33.39
75072;BME280;63651;55.728;38.022;2023-05-07T03:32:26;100657.03;;;10.99;33.50
75072;BME280;63651;55.728;38.022;2023-05-07T03:37:27;100657.25;;;11.12;34.24
75072;BME280;63651;55.728;38.022;2023-05-07T03:42:28;100647.91;;;10.92;33.51
75072;BME280;63651;55.728;38.022;2023-05-07T03:47:29;100647.41;;;10.88;33.22
75072;BME280;63651;55.728;38.022;2023-05-07T03:52:31;100660.72;;;11.06;33.24
75072;BME280;63651;55.728;38.022;2023-05-07T03:57:32;100658.28;;;11.11;33.93
75072;BME280;63651;55.728;38.022;2023-05-07T04:02:33;100661.50;;;11.14;33.12
75072;BME280;63651;55.728;38.022;2023-05-07T04:07:34;100667.34;;;11.26;32.92
75072;BME280;63651;55.728;38.022;2023-05-07T04:12:35;100672.72;;;11.34;33.26
75072;BME280;63651;55.728;38.022;2023-05-07T04:17:36;100675.06;;;11.37;33.68
75072;BME280;63651;55.728;38.022;2023-05-07T04:22:37;100675.31;;;11.50;33.02
75072;BME280;63651;55.728;38.022;2023-05-07T04:27:38;100683.88;;;11.62;33.42
75072;BME280;63651;55.728;38.022;2023-05-07T04:32:39;100685.25;;;11.58;32.96
75072;BME280;63651;55.728;38.022;2023-05-07T04:37:41;100689.41;;;11.69;33.05
75072;BME280;63651;55.728;38.022;2023-05-07T04:42:42;100694.94;;;11.83;32.69
75072;BME280;63651;55.728;38.022;2023-05-07T04:47:43;100698.63;;;11.68;32.45
75072;BME280;63651;55.728;38.022;2023-05-07T04:52:44;100692.88;;;11.85;31.94
75072;BME280;63651;55.728;38.022;2023-05-07T04:57:45;100685.09;;;11.82;31.91
75072;BME280;63651;55.728;38.022;2023-05-07T05:02:46;100692.13;;;11.69;31.66
75072;BME280;63651;55.728;38.022;2023-05-07T05:07:48;100695.72;;;11.69;31.29
75072;BME280;63651;55.728;38.022;2023-05-07T05:12:49;100688.66;;;11.83;31.14
75072;BME280;63651;55.728;38.022;2023-05-07T05:17:50;100695.31;;;11.80;30.74
75072;BME280;63651;55.728;38.022;2023-05-07T05:22:51;100700.94;;;11.79;30.11
75072;BME280;63651;55.728;38.022;2023-05-07T05:27:52;100705.50;;;12.01;30.46
75072;BME280;63651;55.728;38.022;2023-05-07T05:32:53;100699.38;;;11.99;30.48
75072;BME280;63651;55.728;38.022;2023-05-07T05:37:54;100709.88;;;11.88;29.83
75072;BME280;63651;55.728;38.022;2023-05-07T05:42:55;100706.59;;;11.92;29.08
75072;BME280;63651;55.728;38.022;2023-05-07T05:47:56;100706.25;;;12.25;28.67
75072;BME280;63651;55.728;38.022;2023-05-07T05:52:58;100706.91;;;12.27;28.34
75072;BME280;63651;55.728;38.022;2023-05-07T05:58:00;100715.94;;;12.27;28.32
75072;BME280;63651;55.728;38.022;2023-05-07T06:03:01;100714.69;;;12.30;28.23
75072;BME280;63651;55.728;38.022;2023-05-07T06:08:02;100726.72;;;12.21;27.53
75072;BME280;63651;55.728;38.022;2023-05-07T06:13:03;100734.44;;;12.17;27.79
75072;BME280;63651;55.728;38.022;2023-05-07T06:18:04;100734.34;;;12.25;27.15
75072;BME280;63651;55.728;38.022;2023-05-07T06:23:06;100729.72;;;12.40;27.08
75072;BME280;63651;55.728;38.022;2023-05-07T06:28:07;100728.22;;;12.38;26.64
75072;BME280;63651;55.728;38.022;2023-05-07T06:33:10;100729.81;;;12.62;25.96
75072;BME280;63651;55.728;38.022;2023-05-07T06:38:11;100730.78;;;12.90;25.90
75072;BME280;63651;55.728;38.022;2023-05-07T06:43:14;100735.41;;;12.90;25.70
75072;BME280;63651;55.728;38.022;2023-05-07T06:48:15;100731.38;;;12.86;25.33
75072;BME280;63651;55.728;38.022;2023-05-07T06:53:16;100729.78;;;12.76;25.23
75072;BME280;63651;55.728;38.022;2023-05-07T06:58:17;100730.56;;;12.70;25.94
75072;BME280;63651;55.728;38.022;2023-05-07T07:03:18;100737.47;;;12.88;25.13
75072;BME280;63651;55.728;38.022;2023-05-07T07:08:19;100738.91;;;12.69;24.89
75072;BME280;63651;55.728;38.022;2023-05-07T07:13:22;100724.88;;;13.01;24.92
75072;BME280;63651;55.728;38.022;2023-05-07T07:18:23;100728.31;;;13.46;25.04
75072;BME280;63651;55.728;38.022;2023-05-07T07:23:24;100736.03;;;13.21;24.51
75072;BME280;63651;55.728;38.022;2023-05-07T07:28:25;100734.38;;;12.91;24.53
75072;BME280;63651;55.728;38.022;2023-05-07T07:33:26;100729.16;;;13.10;25.01
75072;BME280;63651;55.728;38.022;2023-05-07T07:38:27;100736.25;;;13.05;24.39
75072;BME280;63651;55.728;38.022;2023-05-07T07:43:28;100732.84;;;13.39;24.35
75072;BME280;63651;55.728;38.022;2023-05-07T07:48:30;100731.81;;;13.40;24.43
75072;BME280;63651;55.728;38.022;2023-05-07T07:53:31;100719.72;;;13.49;24.79
75072;BME280;63651;55.728;38.022;2023-05-07T07:58:32;100730.97;;;13.39;23.45
75072;BME280;63651;55.728;38.022;2023-05-07T08:03:33;100725.44;;;13.33;23.36
75072;BME280;63651;55.728;38.022;2023-05-07T08:08:34;100730.38;;;13.23;23.14
75072;BME280;63651;55.728;38.022;2023-05-07T08:13:36;100718.25;;;13.25;23.25
75072;BME280;63651;55.728;38.022;2023-05-07T08:18:38;100715.50;;;13.47;22.71
75072;BME280;63651;55.728;38.022;2023-05-07T08:23:40;100722.41;;;13.42;22.93
75072;BME280;63651;55.728;38.022;2023-05-07T08:28:41;100722.41;;;13.42;23.47
75072;BME280;63651;55.728;38.022;2023-05-07T08:33:42;100722.19;;;13.44;23.05
75072;BME280;63651;55.728;38.022;2023-05-07T08:38:43;100711.63;;;13.84;22.61
75072;BME280;63651;55.728;38.022;2023-05-07T08:43:50;100718.47;;;14.01;22.20
75072;BME280;63651;55.728;38.022;2023-05-07T08:48:51;100714.34;;;14.81;28.48
75072;BME280;63651;55.728;38.022;2023-05-07T08:53:52;100717.78;;;14.20;28.99
75072;BME280;63651;55.728;38.022;2023-05-07T08:58:53;100723.25;;;14.48;28.03
75072;BME280;63651;55.728;38.022;2023-05-07T09:03:57;100720.72;;;14.47;28.66
75072;BME280;63651;55.728;38.022;2023-05-07T09:08:58;100725.63;;;14.58;28.93
75072;BME280;63651;55.728;38.022;2023-05-07T09:14:01;100723.94;;;14.57;28.83
75072;BME280;63651;55.728;38.022;2023-05-07T09:19:03;100712.41;;;14.68;29.48
75072;BME280;63651;55.728;38.022;2023-05-07T09:24:04;100718.19;;;14.45;31.03
75072;BME280;63651;55.728;38.022;2023-05-07T09:29:06;100710.72;;;14.32;33.08
75072;BME280;63651;55.728;38.022;2023-05-07T09:34:08;100706.34;;;14.10;29.87
75072;BME280;63651;55.728;38.022;2023-05-07T09:39:09;100712.31;;;14.20;29.33
75072;BME280;63651;55.728;38.022;2023-05-07T09:44:10;100707.06;;;14.47;29.26
75072;BME280;63651;55.728;38.022;2023-05-07T09:49:23;100692.88;;;14.36;29.48
75072;BME280;63651;55.728;38.022;2023-05-07T09:54:25;100704.00;;;14.35;28.34
75072;BME280;63651;55.728;38.022;2023-05-07T09:59:30;100691.75;;;13.96;29.01
75072;BME280;63651;55.728;38.022;2023-05-07T10:04:32;100704.66;;;13.81;31.73
75072;BME280;63651;55.728;38.022;2023-05-07T10:09:33;100705.38;;;14.24;29.15
75072;BME280;63651;55.728;38.022;2023-05-07T10:14:39;100702.00;;;14.44;32.12
75072;BME280;63651;55.728;38.022;2023-05-07T10:19:40;100697.81;;;14.48;30.47
75072;BME280;63651;55.728;38.022;2023-05-07T10:24:44;100692.09;;;14.43;28.99
75072;BME280;63651;55.728;38.022;2023-05-07T10:30:17;100689.31;;;14.36;28.99
75072;BME280;63651;55.728;38.022;2023-05-07T10:35:29;100698.41;;;14.43;30.56
75072;BME280;63651;55.728;38.022;2023-05-07T10:40:33;100697.31;;;14.37;28.34
75072;BME280;63651;55.728;38.022;2023-05-07T10:45:34;100702.31;;;14.34;33.63
75072;BME280;63651;55.728;38.022;2023-05-07T10:50:39;100704.34;;;14.25;28.78
75072;BME280;63651;55.728;38.022;2023-05-07T10:55:41;100716.41;;;14.31;30.69
75072;BME280;63651;55.728;38.022;2023-05-07T11:00:42;100726.06;;;14.61;33.63
75072;BME280;63651;55.728;38.022;2023-05-07T11:05:44;100710.16;;;14.85;34.93
75072;BME280;63651;55.728;38.022;2023-05-07T11:11:03;100719.47;;;14.97;33.60
75072;BME280;63651;55.728;38.022;2023-05-07T11:16:05;100720.50;;;14.96;33.28
75072;BME280;63651;55.728;38.022;2023-05-07T11:21:32;100703.06;;;14.97;33.71
75072;BME280;63651;55.728;38.022;2023-05-07T11:26:54;100705.53;;;14.85;29.45
75072;BME280;63651;55.728;38.022;2023-05-07T11:31:55;100706.53;;;14.71;28.74
75072;BME280;63651;55.728;38.022;2023-05-07T11:36:58;100702.56;;;14.80;33.26
75072;BME280;63651;55.728;38.022;2023-05-07T11:42:00;100704.78;;;14.57;26.35
75072;BME280;63651;55.728;38.022;2023-05-07T11:47:01;100711.31;;;14.56;26.75
75072;BME280;63651;55.728;38.022;2023-05-07T11:52:03;100718.38;;;14.85;32.30
75072;BME280;63651;55.728;38.022;2023-05-07T11:57:04;100701.97;;;14.91;26.38
75072;BME280;63651;55.728;38.022;2023-05-07T12:02:07;100698.59;;;14.89;26.67
75072;BME280;63651;55.728;38.022;2023-05-07T12:07:12;100701.94;;;14.78;25.78
75072;BME280;63651;55.728;38.022;2023-05-07T12:12:14;100702.91;;;14.57;25.04
75072;BME280;63651;55.728;38.022;2023-05-07T12:17:16;100682.44;;;14.47;24.47
75072;BME280;63651;55.728;38.022;2023-05-07T12:22:17;100706.53;;;14.36;24.25
75072;BME280;63651;55.728;38.022;2023-05-07T12:27:18;100710.25;;;14.57;25.37
75072;BME280;63651;55.728;38.022;2023-05-07T12:32:21;100714.75;;;14.71;25.47
75072;BME280;63651;55.728;38.022;2023-05-07T12:37:24;100712.25;;;14.83;24.42
75072;BME280;63651;55.728;38.022;2023-05-07T12:42:25;100707.88;;;14.88;24.17
75072;BME280;63651;55.728;38.022;2023-05-07T12:47:26;100693.38;;;14.94;23.92
75072;BME280;63651;55.728;38.022;2023-05-07T12:52:27;100696.34;;;15.13;23.73
75072;BME280;63651;55.728;38.022;2023-05-07T12:57:29;100694.47;;;15.13;23.66
75072;BME280;63651;55.728;38.022;2023-05-07T13:02:33;100691.28;;;15.03;24.62
75072;BME280;63651;55.728;38.022;2023-05-07T13:07:35;100682.06;;;15.17;24.16
75072;BME280;63651;55.728;38.022;2023-05-07T13:12:37;100685.63;;;15.18;23.10
75072;BME280;63651;55.728;38.022;2023-05-07T13:17:38;100691.31;;;15.23;22.92
75072;BME280;63651;55.728;38.022;2023-05-07T13:22:40;100694.72;;;15.45;22.90
75072;BME280;63651;55.728;38.022;2023-05-07T13:27:41;100694.72;;;15.38;23.03
75072;BME280;63651;55.728;38.022;2023-05-07T13:32:42;100694.84;;;15.03;23.43
75072;BME280;63651;55.728;38.022;2023-05-07T13:37:43;100695.91;;;15.02;22.99
75072;BME280;63651;55.728;38.022;2023-05-07T13:42:44;100695.91;;;15.02;23.33
75072;BME280;63651;55.728;38.022;2023-05-07T13:47:46;100696.38;;;15.19;23.57
75072;BME280;63651;55.728;38.022;2023-05-07T13:52:47;100702.28;;;15.29;22.60
75072;BME280;63651;55.728;38.022;2023-05-07T13:58:01;100704.59;;;15.26;22.16
75072;BME280;63651;55.728;38.022;2023-05-07T14:03:04;100697.41;;;15.12;23.02
75072;BME280;63651;55.728;38.022;2023-05-07T14:08:06;100697.41;;;15.18;23.41
75072;BME280;63651;55.728;38.022;2023-05-07T14:13:08;100703.06;;;15.03;23.20
75072;BME280;63651;55.728;38.022;2023-05-07T14:18:09;100702.38;;;15.69;26.15
75072;BME280;63651;55.728;38.022;2023-05-07T14:23:10;100699.56;;;15.43;24.63
75072;BME280;63651;55.728;38.022;2023-05-07T14:28:11;100695.56;;;15.45;24.56
75072;BME280;63651;55.728;38.022;2023-05-07T14:33:12;100697.03;;;15.48;24.31
75072;BME280;63651;55.728;38.022;2023-05-07T14:38:13;100695.34;;;15.27;23.99
75072;BME280;63651;55.728;38.022;2023-05-07T14:43:16;100689.44;;;15.36;23.77
75072;BME280;63651;55.728;38.022;2023-05-07T14:48:17;100694.69;;;15.25;23.88
75072;BME280;63651;55.728;38.022;2023-05-07T14:53:18;100703.13;;;15.23;24.01
75072;BME280;63651;55.728;38.022;2023-05-07T14:58:19;100694.47;;;15.20;23.87
75072;BME280;63651;55.728;38.022;2023-05-07T15:03:20;100703.53;;;15.20;23.57
75072;BME280;63651;55.728;38.022;2023-05-07T15:08:22;100693.88;;;15.31;22.96
75072;BME280;63651;55.728;38.022;2023-05-07T15:13:23;100699.75;;;15.28;23.28
75072;BME280;63651;55.728;38.022;2023-05-07T15:18:24;100701.03;;;15.32;23.52
75072;BME280;63651;55.728;38.022;2023-05-07T15:23:25;100697.25;;;15.46;22.82
75072;BME280;63651;55.728;38.022;2023-05-07T15:28:27;100693.50;;;16.13;22.19
75072;BME280;63651;55.728;38.022;2023-05-07T15:33:28;100700.28;;;15.91;22.20
75072;BME280;63651;55.728;38.022;2023-05-07T15:38:30;100699.84;;;15.74;22.55
75072;BME280;63651;55.728;38.022;2023-05-07T15:43:31;100697.31;;;15.73;22.69
75072;BME280;63651;55.728;38.022;2023-05-07T15:48:32;100706.19;;;15.68;21.48
75072;BME280;63651;55.728;38.022;2023-05-07T15:53:33;100700.69;;;15.94;20.34
75072;BME280;63651;55.728;38.022;2023-05-07T15:58:36;100703.63;;;15.93;20.22
75072;BME280;63651;55.728;38.022;2023-05-07T16:03:37;100706.81;;;15.70;20.77
75072;BME280;63651;55.728;38.022;2023-05-07T16:08:39;100712.28;;;15.77;20.92
75072;BME280;63651;55.728;38.022;2023-05-07T16:13:41;100709.56;;;15.77;20.90
75072;BME280;63651;55.728;38.022;2023-05-07T16:18:42;100724.72;;;15.66;21.24
75072;BME280;63651;55.728;38.022;2023-05-07T16:23:43;100720.69;;;16.08;21.53
75072;BME280;63651;55.728;38.022;2023-05-07T16:28:44;100719.88;;;16.92;24.25
75072;BME280;63651;55.728;38.022;2023-05-07T16:33:45;100725.41;;;16.72;24.40
75072;BME280;63651;55.728;38.022;2023-05-07T16:38:46;100722.00;;;16.83;25.42
75072;BME280;63651;55.728;38.022;2023-05-07T16:43:47;100728.13;;;16.79;26.52
75072;BME280;63651;55.728;38.022;2023-05-07T16:48:49;100728.19;;;16.66;27.95
75072;BME280;63651;55.728;38.022;2023-05-07T16:53:50;100738.72;;;16.62;28.58
75072;BME280;63651;55.728;38.022;2023-05-07T16:58:51;100735.56;;;17.54;31.29
75072;BME280;63651;55.728;38.022;2023-05-07T17:03:52;100737.84;;;18.20;30.63
75072;BME280;63651;55.728;38.022;2023-05-07T17:08:53;100741.59;;;18.44;31.00
75072;BME280;63651;55.728;38.022;2023-05-07T17:13:54;100737.94;;;18.50;31.15
75072;BME280;63651;55.728;38.022;2023-05-07T17:18:55;100746.50;;;18.61;31.24
75072;BME280;63651;55.728;38.022;2023-05-07T17:23:56;100745.16;;;18.70;30.65
75072;BME280;63651;55.728;38.022;2023-05-07T17:28:57;100756.72;;;18.10;29.22
75072;BME280;63651;55.728;38.022;2023-05-07T17:33:58;100764.38;;;17.45;28.94
75072;BME280;63651;55.728;38.022;2023-05-07T17:38:59;100764.34;;;17.14;28.80
75072;BME280;63651;55.728;38.022;2023-05-07T17:44:00;100772.25;;;16.77;28.91
75072;BME280;63651;55.728;38.022;2023-05-07T17:49:01;100779.28;;;16.47;28.71
75072;BME280;63651;55.728;38.022;2023-05-07T17:54:03;100756.72;;;16.31;26.65
75072;BME280;63651;55.728;38.022;2023-05-07T17:59:04;100757.81;;;15.97;25.73
75072;BME280;63651;55.728;38.022;2023-05-07T18:04:05;100768.13;;;15.76;25.44
75072;BME280;63651;55.728;38.022;2023-05-07T18:09:06;100767.00;;;15.57;25.02
75072;BME280;63651;55.728;38.022;2023-05-07T18:14:07;100768.63;;;15.31;24.79
75072;BME280;63651;55.728;38.022;2023-05-07T18:19:08;100770.25;;;15.13;25.01
75072;BME280;63651;55.728;38.022;2023-05-07T18:24:09;100771.28;;;15.05;25.06
75072;BME280;63651;55.728;38.022;2023-05-07T18:29:10;100775.22;;;14.89;25.05
75072;BME280;63651;55.728;38.022;2023-05-07T18:34:11;100778.91;;;14.68;25.08
75072;BME280;63651;55.728;38.022;2023-05-07T18:39:14;100790.69;;;14.41;25.34
75072;BME280;63651;55.728;38.022;2023-05-07T18:44:15;100787.78;;;14.43;25.63
75072;BME280;63651;55.728;38.022;2023-05-07T18:49:16;100803.50;;;14.40;25.74
75072;BME280;63651;55.728;38.022;2023-05-07T18:54:17;100786.22;;;14.33;25.72
75072;BME280;63651;55.728;38.022;2023-05-07T18:59:18;100786.34;;;14.25;25.81
75072;BME280;63651;55.728;38.022;2023-05-07T19:04:20;100793.19;;;14.15;26.50
75072;BME280;63651;55.728;38.022;2023-05-07T19:09:21;100802.78;;;14.04;26.66
75072;BME280;63651;55.728;38.022;2023-05-07T19:14:22;100797.00;;;13.92;26.73
75072;BME280;63651;55.728;38.022;2023-05-07T19:19:24;100805.28;;;13.77;27.04
75072;BME280;63651;55.728;38.022;2023-05-07T19:24:25;100801.44;;;13.72;27.09
75072;BME280;63651;55.728;38.022;2023-05-07T19:29:26;100802.16;;;13.59;27.05
75072;BME280;63651;55.728;38.022;2023-05-07T19:34:29;100809.69;;;13.57;27.65
75072;BME280;63651;55.728;38.022;2023-05-07T19:39:30;100816.19;;;13.56;27.59
75072;BME280;63651;55.728;38.022;2023-05-07T19:44:31;100821.56;;;13.50;27.74
75072;BME280;63651;55.728;38.022;2023-05-07T19:49:32;100822.88;;;13.54;28.07
75072;BME280;63651;55.728;38.022;2023-05-07T19:54:34;100829.38;;;13.53;28.32
75072;BME280;63651;55.728;38.022;2023-05-07T19:59:35;100839.38;;;13.45;28.27
75072;BME280;63651;55.728;38.022;2023-05-07T20:04:36;100838.91;;;13.42;28.65
75072;BME280;63651;55.728;38.022;2023-05-07T20:09:38;100838.00;;;13.35;28.83
75072;BME280;63651;55.728;38.022;2023-05-07T20:14:39;100837.53;;;13.31;28.80
75072;BME280;63651;55.728;38.022;2023-05-07T20:19:40;100845.06;;;13.29;28.67
75072;BME280;63651;55.728;38.022;2023-05-07T20:24:41;100844.31;;;13.21;28.71
75072;BME280;63651;55.728;38.022;2023-05-07T20:29:42;100851.09;;;13.25;29.09
75072;BME280;63651;55.728;38.022;2023-05-07T20:34:44;100856.94;;;13.22;28.89
75072;BME280;63651;55.728;38.022;2023-05-07T20:39:45;100863.25;;;13.22;29.40
75072;BME280;63651;55.728;38.022;2023-05-07T20:44:46;100868.41;;;13.17;29.38
75072;BME280;63651;55.728;38.022;2023-05-07T20:49:50;100872.44;;;13.06;29.59
75072;BME280;63651;55.728;38.022;2023-05-07T20:54:52;100882.41;;;13.14;29.56
75072;BME280;63651;55.728;38.022;2023-05-07T20:59:53;100885.22;;;13.06;29.91
75072;BME280;63651;55.728;38.022;2023-05-07T21:04:54;100884.75;;;13.02;30.13
75072;BME280;63651;55.728;38.022;2023-05-07T21:09:55;100894.13;;;13.00;30.15
75072;BME280;63651;55.728;38.022;2023-05-07T21:14:56;100891.34;;;13.08;29.98
75072;BME280;63651;55.728;38.022;2023-05-07T21:19:57;100886.66;;;13.02;30.36
75072;BME280;63651;55.728;38.022;2023-05-07T21:24:59;100900.56;;;13.07;30.32
75072;BME280;63651;55.728;38.022;2023-05-07T21:30:00;100897.47;;;13.10;30.13
75072;BME280;63651;55.728;38.022;2023-05-07T21:35:04;100896.22;;;12.98;30.36
75072;BME280;63651;55.728;38.022;2023-05-07T21:40:07;100902.22;;;12.93;30.29
75072;BME280;63651;55.728;38.022;2023-05-07T21:45:09;100909.19;;;12.96;30.41
75072;BME280;63651;55.728;38.022;2023-05-07T21:50:10;100907.59;;;12.87;30.72
75072;BME280;63651;55.728;38.022;2023-05-07T21:55:12;100913.50;;;12.90;30.21
75072;BME280;63651;55.728;38.022;2023-05-07T22:00:13;100910.03;;;12.81;30.85
75072;BME280;63651;55.728;38.022;2023-05-07T22:05:14;100921.13;;;12.95;30.61
75072;BME280;63651;55.728;38.022;2023-05-07T22:10:15;100915.19;;;12.91;30.71
75072;BME280;63651;55.728;38.022;2023-05-07T22:15:21;100917.34;;;12.81;30.85
75072;BME280;63651;55.728;38.022;2023-05-07T22:20:22;100916.81;;;12.86;30.98
75072;BME280;63651;55.728;38.022;2023-05-07T22:25:24;100917.44;;;12.73;31.17
75072;BME280;63651;55.728;38.022;2023-05-07T22:30:26;100917.34;;;12.81;31.01
75072;BME280;63651;55.728;38.022;2023-05-07T22:35:27;100922.72;;;12.74;30.95
75072;BME280;63651;55.728;38.022;2023-05-07T22:40:28;100914.34;;;12.76;30.97
75072;BME280;63651;55.728;38.022;2023-05-07T22:45:29;100924.50;;;12.82;30.78
75072;BME280;63651;55.728;38.022;2023-05-07T22:50:30;100925.72;;;12.79;30.51
75072;BME280;63651;55.728;38.022;2023-05-07T22:55:31;100932.84;;;12.66;30.89
75072;BME280;63651;55.728;38.022;2023-05-07T23:00:32;100923.25;;;12.70;30.47
75072;BME280;63651;55.728;38.022;2023-05-07T23:05:33;100920.72;;;12.68;30.86
75072;BME280;63651;55.728;38.022;2023-05-07T23:10:34;100917.34;;;12.66;30.78
75072;BME280;63651;55.728;38.022;2023-05-07T23:15:35;100923.72;;;12.59;30.95
75072;BME280;63651;55.728;38.022;2023-05-07T23:20:36;100921.84;;;12.59;30.68
75072;BME280;63651;55.728;38.022;2023-05-07T23:25:39;100923.06;;;12.57;30.46
75072;BME280;63651;55.728;38.022;2023-05-07T23:30:40;100935.06;;;12.47;30.79
75072;BME280;63651;55.728;38.022;2023-05-07T23:35:41;100924.63;;;12.51;30.62
75072;BME280;63651;55.728;38.022;2023-05-07T23:40:43;100922.22;;;12.56;30.71
75072;BME280;63651;55.728;38.022;2023-05-07T23:45:44;100925.13;;;12.55;30.31
75072;BME280;63651;55.728;38.022;2023-05-07T23:50:45;100926.59;;;12.42;30.63
75072;BME280;63651;55.728;38.022;2023-05-07T23:55:46;100922.47;;;12.46;30.48
